Lynden, Washington
Current Conditions -  °F | °C
As of 12:38 PM on Thursday 23 Oct 2014 (Local Time) from CYXX Reporting Station
Rain Showers Rain Showers  
Wind Chill: 54°   Ceiling: 1500
Heat Index: 54°   Visibility: 10mi
Dew Point: 48°   Wind: 18mph
Humidity: 82%   Direction: 190°S
Pressure: 29.76"   Gusts: 26mph
Location:  48.94°N, 122.45°W
Report Text: CYXX 231938Z 19016G23KT 10SM -SHRA OVC015 12/09 A2976 RMK SC8 CVCTV CLD EMBD SLP079
Loading
Personal Weather Stations






























Interactive Weather Map
Tropical Storm Tracking
New forecast layout! Learn more

10-Day Weather Forecast

Advertisements
Track Severe Weather on mobile